createdAt,value
2019-04-10T00:00:53.474Z,11.31
2019-04-10T00:01:53.483Z,11.31
2019-04-10T00:02:53.645Z,11.29
2019-04-10T00:03:54.340Z,11.28
2019-04-10T00:04:53.654Z,11.25
2019-04-10T00:05:53.444Z,11.24
2019-04-10T00:06:54.236Z,11.21
2019-04-10T00:07:55.467Z,11.20
2019-04-10T00:08:53.395Z,11.19
2019-04-10T00:09:53.415Z,11.19
2019-04-10T00:10:54.319Z,11.19
2019-04-10T00:11:53.510Z,11.20
2019-04-10T00:12:54.125Z,11.20
2019-04-10T00:13:53.324Z,11.20
2019-04-10T00:14:53.304Z,11.21
2019-04-10T00:15:53.334Z,11.20
2019-04-10T00:16:54.264Z,11.17
2019-04-10T00:17:53.560Z,11.17
2019-04-10T00:18:53.964Z,11.16
2019-04-10T00:19:54.010Z,11.14
2019-04-10T00:20:53.273Z,11.14
2019-04-10T00:21:53.597Z,11.13
2019-04-10T00:22:53.224Z,11.13
2019-04-10T00:23:53.447Z,11.10
2019-04-10T00:24:53.210Z,11.07
2019-04-10T00:25:53.184Z,11.06
2019-04-10T00:26:54.297Z,11.03
2019-04-10T00:27:53.167Z,10.99
2019-04-10T00:28:53.894Z,11.02
2019-04-10T00:29:54.315Z,11.01
2019-04-10T00:30:53.576Z,10.99
2019-04-10T00:31:54.156Z,10.99
2019-04-10T00:32:54.342Z,11.01
2019-04-10T00:33:53.543Z,10.99
2019-04-10T00:34:54.023Z,11.01
2019-04-10T00:35:53.995Z,11.01
2019-04-10T00:36:53.370Z,10.98
2019-04-10T00:37:53.439Z,10.98
2019-04-10T00:38:53.864Z,10.98
2019-04-10T00:39:53.095Z,10.98
2019-04-10T00:40:53.024Z,10.98
2019-04-10T00:41:53.022Z,10.98
2019-04-10T00:42:53.764Z,10.95
2019-04-10T00:43:53.098Z,10.95
2019-04-10T00:44:54.204Z,10.95
2019-04-10T00:45:53.613Z,10.96
2019-04-10T00:46:52.972Z,10.96
2019-04-10T00:47:53.173Z,10.95
2019-04-10T00:48:53.004Z,10.92
2019-04-10T00:49:53.673Z,10.92
2019-04-10T00:50:53.033Z,10.92
2019-04-10T00:51:52.896Z,10.91
2019-04-10T00:52:52.899Z,10.91
2019-04-10T00:53:53.797Z,10.91
2019-04-10T00:54:52.937Z,10.91
2019-04-10T00:55:52.873Z,10.94
2019-04-10T00:56:52.904Z,10.91
2019-04-10T00:57:54.601Z,10.91
2019-04-10T00:58:53.238Z,10.91
2019-04-10T00:59:52.853Z,10.92
2019-04-10T01:00:52.849Z,10.92
2019-04-10T01:01:52.794Z,10.92
2019-04-10T01:02:53.344Z,10.91
2019-04-10T01:03:53.828Z,10.88
2019-04-10T01:04:52.995Z,10.84
2019-04-10T01:05:52.754Z,10.81
2019-04-10T01:06:52.746Z,10.80
2019-04-10T01:07:53.882Z,10.78
2019-04-10T01:08:53.123Z,10.77
2019-04-10T01:09:53.442Z,10.77
2019-04-10T01:10:52.706Z,10.80
2019-04-10T01:11:52.684Z,10.78
2019-04-10T01:12:52.684Z,10.80
2019-04-10T01:13:53.675Z,10.80
2019-04-10T01:14:52.686Z,10.81
2019-04-10T01:15:53.119Z,10.81
2019-04-10T01:16:52.626Z,10.83
2019-04-10T01:17:52.819Z,10.83
2019-04-10T01:18:53.252Z,10.83
2019-04-10T01:19:52.634Z,10.84
2019-04-10T01:20:53.534Z,10.83
2019-04-10T01:21:52.793Z,10.81
2019-04-10T01:22:52.566Z,10.83
2019-04-10T01:23:53.248Z,10.81
2019-04-10T01:24:52.574Z,10.83
2019-04-10T01:25:52.700Z,10.83
2019-04-10T01:26:52.515Z,10.81
2019-04-10T01:27:52.536Z,10.81
2019-04-10T01:28:54.029Z,10.78
2019-04-10T01:29:53.596Z,10.77
2019-04-10T01:30:52.815Z,10.78
2019-04-10T01:31:53.153Z,10.76
2019-04-10T01:32:52.478Z,10.77
2019-04-10T01:33:52.712Z,10.77
2019-04-10T01:34:52.437Z,10.77
2019-04-10T01:35:52.434Z,10.76
2019-04-10T01:36:52.490Z,10.78
2019-04-10T01:37:57.688Z,10.78
2019-04-10T01:38:53.789Z,10.78
2019-04-10T01:39:52.806Z,10.78
2019-04-10T01:40:53.112Z,10.77
2019-04-10T01:41:52.412Z,10.77
2019-04-10T01:43:03.262Z,10.76
2019-04-10T01:43:53.332Z,10.77
2019-04-10T01:44:53.153Z,10.77
2019-04-10T01:45:52.325Z,10.76
2019-04-10T01:46:52.962Z,10.76
2019-04-10T01:47:53.283Z,10.73
2019-04-10T01:48:53.286Z,10.74
2019-04-10T01:49:52.267Z,10.76
2019-04-10T01:50:52.881Z,10.73
2019-04-10T01:51:52.286Z,10.71
2019-04-10T01:52:53.326Z,10.71
2019-04-10T01:53:52.404Z,10.70
2019-04-10T01:54:52.444Z,10.70
2019-04-10T01:55:53.397Z,10.70
2019-04-10T01:56:52.211Z,10.70
2019-04-10T01:57:52.653Z,10.71
2019-04-10T01:58:52.204Z,10.71
2019-04-10T01:59:52.166Z,10.73
2019-04-10T02:00:52.186Z,10.71
2019-04-10T02:01:52.606Z,10.73
2019-04-10T02:02:52.141Z,10.73
2019-04-10T02:03:52.115Z,10.73
2019-04-10T02:04:53.730Z,10.73
2019-04-10T02:05:52.625Z,10.71
2019-04-10T02:06:52.088Z,10.71
2019-04-10T02:08:01.124Z,10.71
2019-04-10T02:08:54.135Z,10.73
2019-04-10T02:09:52.074Z,10.70
2019-04-10T02:10:52.275Z,10.73
2019-04-10T02:11:52.343Z,10.73
2019-04-10T02:12:52.681Z,10.74
2019-04-10T02:13:52.013Z,10.71
2019-04-10T02:14:52.318Z,10.73
2019-04-10T02:15:52.433Z,10.71
2019-04-10T02:16:52.065Z,10.73
2019-04-10T02:17:52.949Z,10.73
2019-04-10T02:18:52.053Z,10.70
2019-04-10T02:19:51.967Z,10.70
2019-04-10T02:20:51.933Z,10.70
2019-04-10T02:21:51.947Z,10.68
2019-04-10T02:22:52.001Z,10.66
2019-04-10T02:23:52.414Z,10.65
2019-04-10T02:24:51.886Z,10.63
2019-04-10T02:25:52.830Z,10.62
2019-04-10T02:26:51.978Z,10.63
2019-04-10T02:27:51.869Z,10.62
2019-04-10T02:28:51.878Z,10.62
2019-04-10T02:29:52.312Z,10.60
2019-04-10T02:30:51.979Z,10.63
2019-04-10T02:31:52.802Z,10.65
2019-04-10T02:32:52.940Z,10.66
2019-04-10T02:33:51.988Z,10.68
2019-04-10T02:34:53.186Z,10.68
2019-04-10T02:35:52.630Z,10.68
2019-04-10T02:36:52.899Z,10.68
2019-04-10T02:37:55.406Z,10.68
2019-04-10T02:39:02.021Z,10.70
2019-04-10T02:39:56.266Z,10.70
2019-04-10T02:40:53.074Z,10.68
2019-04-10T02:41:52.397Z,10.68
2019-04-10T02:42:51.734Z,10.68
2019-04-10T02:43:51.694Z,10.68
2019-04-10T02:44:52.125Z,10.70
2019-04-10T02:45:51.924Z,10.70
2019-04-10T02:46:51.972Z,10.70
2019-04-10T02:47:52.883Z,10.68
2019-04-10T02:48:52.077Z,10.68
2019-04-10T02:49:52.180Z,10.70
2019-04-10T02:50:51.613Z,10.68
2019-04-10T02:51:51.944Z,10.65
2019-04-10T02:52:51.601Z,10.63
2019-04-10T02:53:53.043Z,10.62
2019-04-10T02:54:53.573Z,10.60
2019-04-10T02:55:51.703Z,10.59
2019-04-10T02:56:52.795Z,10.58
2019-04-10T02:57:51.867Z,10.58
2019-04-10T02:58:51.702Z,10.58
2019-04-10T02:59:51.568Z,10.56
2019-04-10T03:00:52.512Z,10.55
2019-04-10T03:01:51.925Z,10.53
2019-04-10T03:02:52.047Z,10.52
2019-04-10T03:03:52.558Z,10.51
2019-04-10T03:04:53.191Z,10.47
2019-04-10T03:05:51.437Z,10.44
2019-04-10T03:06:51.636Z,10.43
2019-04-10T03:07:52.587Z,10.42
2019-04-10T03:09:08.051Z,10.40
2019-04-10T03:10:02.382Z,10.39
2019-04-10T03:10:59.043Z,10.37
2019-04-10T03:11:52.404Z,10.37
2019-04-10T03:12:52.579Z,10.34
2019-04-10T03:13:51.375Z,10.32
2019-04-10T03:14:52.291Z,10.32
2019-04-10T03:15:51.871Z,10.32
2019-04-10T03:16:51.502Z,10.32
2019-04-10T03:17:52.387Z,10.30
2019-04-10T03:18:51.545Z,10.30
2019-04-10T03:19:51.851Z,10.32
2019-04-10T03:20:51.285Z,10.30
2019-04-10T03:21:51.412Z,10.28
2019-04-10T03:22:51.426Z,10.28
2019-04-10T03:23:51.245Z,10.30
2019-04-10T03:24:51.237Z,10.28
2019-04-10T03:25:53.035Z,10.25
2019-04-10T03:26:52.170Z,10.26
2019-04-10T03:27:52.537Z,10.26
2019-04-10T03:28:51.456Z,10.25
2019-04-10T03:29:51.918Z,10.25
2019-04-10T03:30:51.288Z,10.24
2019-04-10T03:31:52.901Z,10.24
2019-04-10T03:32:57.230Z,10.24
2019-04-10T03:33:54.643Z,10.25
2019-04-10T03:34:51.350Z,10.22
2019-04-10T03:35:51.474Z,10.24
2019-04-10T03:36:51.774Z,10.22
2019-04-10T03:37:51.092Z,10.21
2019-04-10T03:38:59.543Z,10.18
2019-04-10T03:39:53.134Z,10.19
2019-04-10T03:40:51.427Z,10.17
2019-04-10T03:41:51.055Z,10.17
2019-04-10T03:42:51.046Z,10.17
2019-04-10T03:43:52.132Z,10.15
2019-04-10T03:44:51.386Z,10.07
2019-04-10T03:45:51.036Z,10.09
2019-04-10T03:46:52.322Z,10.10
2019-04-10T03:47:51.507Z,10.12
2019-04-10T03:48:51.522Z,10.09
2019-04-10T03:49:51.941Z,10.06
2019-04-10T03:50:52.090Z,10.07
2019-04-10T03:51:51.039Z,10.10
2019-04-10T03:52:51.699Z,10.12
2019-04-10T03:53:50.941Z,10.14
2019-04-10T03:54:50.896Z,10.06
2019-04-10T03:55:52.031Z,10.03
2019-04-10T03:56:51.017Z,10.00
2019-04-10T03:57:51.956Z,10.03
2019-04-10T03:58:51.657Z,10.01
2019-04-10T03:59:51.833Z,9.94
2019-04-10T04:00:50.845Z,9.93
2019-04-10T04:01:51.386Z,9.93
2019-04-10T04:02:51.796Z,9.94
2019-04-10T04:03:51.179Z,9.86
2019-04-10T04:04:50.805Z,9.67
2019-04-10T04:05:51.071Z,9.57
2019-04-10T04:06:50.839Z,9.52
2019-04-10T04:07:51.690Z,9.48
2019-04-10T04:09:01.551Z,9.43
2019-04-10T04:09:51.735Z,9.39
2019-04-10T04:10:51.243Z,9.40
2019-04-10T04:11:50.718Z,9.45
2019-04-10T04:12:50.981Z,9.50
2019-04-10T04:13:50.732Z,9.57
2019-04-10T04:14:50.736Z,9.60
2019-04-10T04:15:52.559Z,9.61
2019-04-10T04:16:51.223Z,9.64
2019-04-10T04:17:50.694Z,9.67
2019-04-10T04:18:51.236Z,9.64
2019-04-10T04:19:50.689Z,9.68
2019-04-10T04:20:50.996Z,9.73
2019-04-10T04:21:50.652Z,9.76
2019-04-10T04:22:50.605Z,9.79
2019-04-10T04:23:51.074Z,9.82
2019-04-10T04:24:50.659Z,9.85
2019-04-10T04:25:50.611Z,9.85
2019-04-10T04:26:50.804Z,9.85
2019-04-10T04:27:50.551Z,9.88
2019-04-10T04:28:51.544Z,9.89
2019-04-10T04:29:50.567Z,9.89
2019-04-10T04:30:53.092Z,9.89
2019-04-10T04:31:50.718Z,9.89
2019-04-10T04:32:50.581Z,9.91
2019-04-10T04:33:50.496Z,9.89
2019-04-10T04:34:50.532Z,9.88
2019-04-10T04:35:51.043Z,9.88
2019-04-10T04:36:51.413Z,9.88
2019-04-10T04:37:50.622Z,9.86
2019-04-10T04:38:51.392Z,9.86
2019-04-10T04:39:50.444Z,9.85
2019-04-10T04:40:51.425Z,9.85
2019-04-10T04:41:50.425Z,9.85
2019-04-10T04:42:51.360Z,9.85
2019-04-10T04:43:50.364Z,9.86
2019-04-10T04:44:50.365Z,9.89
2019-04-10T04:45:50.722Z,9.88
2019-04-10T04:46:50.627Z,9.89
2019-04-10T04:47:50.419Z,9.91
2019-04-10T04:48:50.317Z,9.93
2019-04-10T04:49:50.324Z,9.93
2019-04-10T04:50:50.324Z,9.93
2019-04-10T04:51:50.608Z,9.91
2019-04-10T04:52:50.394Z,9.88
2019-04-10T04:53:50.525Z,9.88
2019-04-10T04:54:50.285Z,9.83
2019-04-10T04:55:51.324Z,9.81
2019-04-10T04:56:50.535Z,9.79
2019-04-10T04:57:50.290Z,9.79
2019-04-10T04:58:50.244Z,9.78
2019-04-10T04:59:50.509Z,9.78
2019-04-10T05:00:50.832Z,9.79
2019-04-10T05:01:50.164Z,9.78
2019-04-10T05:02:50.165Z,9.78
2019-04-10T05:03:50.526Z,9.78
2019-04-10T05:04:50.182Z,9.76
2019-04-10T05:05:50.185Z,9.73
2019-04-10T05:06:50.199Z,9.73
2019-04-10T05:07:59.470Z,9.71
2019-04-10T05:08:51.125Z,9.68
2019-04-10T05:09:50.524Z,9.63
2019-04-10T05:10:50.109Z,9.61
2019-04-10T05:11:51.050Z,9.58
2019-04-10T05:12:50.134Z,9.58
2019-04-10T05:13:50.969Z,9.58
2019-04-10T05:14:50.034Z,9.60
2019-04-10T05:15:51.083Z,9.61
2019-04-10T05:16:50.073Z,9.63
2019-04-10T05:17:50.016Z,9.63
2019-04-10T05:18:50.175Z,9.64
2019-04-10T05:19:50.823Z,9.61
2019-04-10T05:20:50.977Z,9.63
2019-04-10T05:21:50.013Z,9.61
2019-04-10T05:22:52.075Z,9.60
2019-04-10T05:23:49.925Z,9.60
2019-04-10T05:24:49.922Z,9.60
2019-04-10T05:25:49.906Z,9.61
2019-04-10T05:26:51.096Z,9.60
2019-04-10T05:27:51.012Z,9.60
2019-04-10T05:28:50.840Z,9.58
2019-04-10T05:29:50.602Z,9.56
2019-04-10T05:30:50.609Z,9.53
2019-04-10T05:31:53.096Z,9.50
2019-04-10T05:32:49.824Z,9.50
2019-04-10T05:33:49.824Z,9.50
2019-04-10T05:34:50.391Z,9.48
2019-04-10T05:35:50.843Z,9.40
2019-04-10T05:36:49.800Z,9.39
2019-04-10T05:37:49.927Z,9.39
2019-04-10T05:38:51.004Z,9.39
2019-04-10T05:39:51.940Z,9.42
2019-04-10T05:40:50.730Z,9.40
2019-04-10T05:41:50.378Z,9.40
2019-04-10T05:42:50.174Z,9.42
2019-04-10T05:43:50.891Z,9.42
2019-04-10T05:44:50.171Z,9.45
2019-04-10T05:45:50.692Z,9.43
2019-04-10T05:46:49.781Z,9.45
2019-04-10T05:47:50.711Z,9.45
2019-04-10T05:48:50.530Z,9.48
2019-04-10T05:49:49.703Z,9.50
2019-04-10T05:50:56.631Z,9.50
2019-04-10T05:51:50.643Z,9.53
2019-04-10T05:52:49.699Z,9.58
2019-04-10T05:53:52.711Z,9.60
2019-04-10T05:54:49.663Z,9.61
2019-04-10T05:55:49.705Z,9.64
2019-04-10T05:56:50.405Z,9.61
2019-04-10T05:57:49.603Z,9.61
2019-04-10T05:58:49.629Z,9.63
2019-04-10T05:59:49.596Z,9.63
2019-04-10T06:00:49.922Z,9.67
2019-04-10T06:01:50.505Z,9.68
2019-04-10T06:02:50.296Z,9.71
2019-04-10T06:03:49.501Z,9.71
2019-04-10T06:04:49.711Z,9.75
2019-04-10T06:05:49.506Z,9.76
2019-04-10T06:06:49.526Z,9.76
2019-04-10T06:07:49.614Z,9.76
2019-04-10T06:08:49.483Z,9.75
2019-04-10T06:09:55.992Z,9.76
2019-04-10T06:10:50.418Z,9.75
2019-04-10T06:11:49.435Z,9.73
2019-04-10T06:12:49.445Z,9.78
2019-04-10T06:13:50.448Z,9.76
2019-04-10T06:14:50.413Z,9.76
2019-04-10T06:15:49.410Z,9.76
2019-04-10T06:16:49.378Z,9.78
2019-04-10T06:17:49.343Z,9.79
2019-04-10T06:18:49.380Z,9.81
2019-04-10T06:19:49.376Z,9.79
2019-04-10T06:20:49.420Z,9.76
2019-04-10T06:21:50.314Z,9.71
2019-04-10T06:22:50.605Z,9.67
2019-04-10T06:23:49.854Z,9.63
2019-04-10T06:24:49.285Z,9.63
2019-04-10T06:25:49.887Z,9.60
2019-04-10T06:26:50.098Z,9.60
2019-04-10T06:27:50.477Z,9.60
2019-04-10T06:28:49.215Z,9.58
2019-04-10T06:29:49.203Z,9.58
2019-04-10T06:30:50.299Z,9.58
2019-04-10T06:31:49.407Z,9.60
2019-04-10T06:32:49.437Z,9.60
2019-04-10T06:33:49.203Z,9.61
2019-04-10T06:34:50.117Z,9.63
2019-04-10T06:35:49.141Z,9.64
2019-04-10T06:36:49.426Z,9.64
2019-04-10T06:37:49.135Z,9.67
2019-04-10T06:38:49.103Z,9.70
2019-04-10T06:39:49.138Z,9.73
2019-04-10T06:40:50.285Z,9.76
2019-04-10T06:41:49.113Z,9.81
2019-04-10T06:42:52.232Z,9.83
2019-04-10T06:43:49.641Z,9.85
2019-04-10T06:44:50.179Z,9.88
2019-04-10T06:45:49.035Z,9.91
2019-04-10T06:46:49.059Z,9.94
2019-04-10T06:47:49.064Z,9.96
2019-04-10T06:48:50.019Z,10.00
2019-04-10T06:49:48.988Z,10.06
2019-04-10T06:50:49.019Z,10.09
2019-04-10T06:51:49.406Z,10.14
2019-04-10T06:52:49.289Z,10.18
2019-04-10T06:54:00.152Z,10.21
2019-04-10T06:54:51.044Z,10.24
2019-04-10T06:55:48.967Z,10.26
2019-04-10T06:56:48.904Z,10.30
2019-04-10T06:57:55.027Z,10.28
2019-04-10T06:58:49.961Z,10.26
2019-04-10T06:59:48.874Z,10.28
2019-04-10T07:00:52.925Z,10.25
2019-04-10T07:01:53.361Z,10.19
2019-04-10T07:02:50.554Z,10.17
2019-04-10T07:03:56.520Z,10.17
2019-04-10T07:04:54.184Z,10.14
2019-04-10T07:06:04.823Z,10.10
2019-04-10T07:06:59.761Z,10.09
2019-04-10T07:07:53.618Z,10.07
2019-04-10T07:08:50.900Z,10.01
2019-04-10T07:09:49.594Z,9.99
2019-04-10T07:10:54.618Z,9.97
2019-04-10T07:11:53.512Z,9.96
2019-04-10T07:12:49.735Z,9.93
2019-04-10T07:13:49.104Z,9.68
2019-04-10T07:14:50.770Z,9.49
2019-04-10T07:15:49.798Z,9.34
2019-04-10T07:16:48.733Z,9.24
2019-04-10T07:17:49.274Z,9.24
2019-04-10T07:18:49.443Z,9.27
2019-04-10T07:19:49.290Z,9.32
2019-04-10T07:20:48.975Z,9.40
2019-04-10T07:21:49.167Z,9.48
2019-04-10T07:22:49.663Z,9.40
2019-04-10T07:23:49.043Z,9.31
2019-04-10T07:24:51.273Z,9.28
2019-04-10T07:25:48.604Z,9.28
2019-04-10T07:26:50.535Z,9.32
2019-04-10T07:27:48.574Z,9.39
2019-04-10T07:28:50.064Z,9.49
2019-04-10T07:29:50.810Z,9.56
2019-04-10T07:30:48.760Z,9.61
2019-04-10T07:31:48.838Z,9.63
2019-04-10T07:32:49.171Z,9.66
2019-04-10T07:33:50.500Z,9.60
2019-04-10T07:34:48.727Z,9.53
2019-04-10T07:35:48.507Z,9.60
2019-04-10T07:36:48.463Z,9.68
2019-04-10T07:37:52.576Z,9.78
2019-04-10T07:38:53.490Z,9.78
2019-04-10T07:39:49.443Z,9.73
2019-04-10T07:40:49.125Z,9.75
2019-04-10T07:41:49.316Z,9.81
2019-04-10T07:42:48.678Z,9.86
2019-04-10T07:43:53.602Z,9.94
2019-04-10T07:44:49.414Z,10.00
2019-04-10T07:45:48.380Z,10.09
2019-04-10T07:46:48.861Z,10.15
2019-04-10T07:47:48.410Z,10.09
2019-04-10T07:48:48.383Z,10.04
2019-04-10T07:49:48.388Z,10.00
2019-04-10T07:50:48.544Z,9.97
2019-04-10T07:51:49.152Z,9.88
2019-04-10T07:52:48.295Z,9.86
2019-04-10T07:53:49.170Z,9.91
2019-04-10T07:54:48.274Z,9.82
2019-04-10T07:55:58.380Z,9.70
2019-04-10T07:56:49.451Z,9.52
2019-04-10T07:57:49.991Z,9.52
2019-04-10T07:58:48.299Z,9.45
2019-04-10T07:59:48.254Z,9.31
2019-04-10T08:00:49.760Z,9.30
2019-04-10T08:01:48.203Z,9.12
2019-04-10T08:02:49.160Z,9.09
2019-04-10T08:03:50.941Z,9.12
2019-04-10T08:04:48.349Z,9.12
2019-04-10T08:05:48.234Z,9.02
2019-04-10T08:06:48.161Z,9.01
2019-04-10T08:07:48.322Z,8.99
2019-04-10T08:08:49.156Z,9.05
2019-04-10T08:09:48.158Z,9.10
2019-04-10T08:10:48.777Z,9.09
2019-04-10T08:11:48.890Z,8.99
2019-04-10T08:12:52.112Z,8.91
2019-04-10T08:13:49.274Z,8.76
2019-04-10T08:14:48.534Z,8.76
2019-04-10T08:15:48.112Z,8.76
2019-04-10T08:16:48.041Z,8.86
2019-04-10T08:17:49.767Z,8.94
2019-04-10T08:18:48.013Z,9.04
2019-04-10T08:19:48.783Z,9.13
2019-04-10T08:20:48.942Z,9.24
2019-04-10T08:21:49.118Z,9.31
2019-04-10T08:22:47.965Z,9.39
2019-04-10T08:23:48.559Z,9.46
2019-04-10T08:24:49.109Z,9.45
2019-04-10T08:25:47.951Z,9.20
2019-04-10T08:26:47.930Z,9.09
2019-04-10T08:27:48.069Z,9.09
2019-04-10T08:28:47.902Z,9.13
2019-04-10T08:29:48.445Z,9.21
2019-04-10T08:30:48.353Z,9.30
2019-04-10T08:31:48.345Z,9.35
2019-04-10T08:32:57.199Z,9.39
2019-04-10T08:33:48.844Z,9.40
2019-04-10T08:34:48.626Z,9.18
2019-04-10T08:35:47.865Z,9.01
2019-04-10T08:36:47.949Z,8.90
2019-04-10T08:37:48.718Z,8.81
2019-04-10T08:38:48.875Z,8.86
2019-04-10T08:39:49.726Z,8.86
2019-04-10T08:40:48.230Z,8.83
2019-04-10T08:41:48.109Z,8.83
2019-04-10T08:42:47.751Z,8.87
2019-04-10T08:43:48.217Z,8.86
2019-04-10T08:44:48.661Z,8.88
2019-04-10T08:45:51.586Z,8.81
2019-04-10T08:46:48.280Z,8.84
2019-04-10T08:47:48.705Z,8.91
2019-04-10T08:48:47.741Z,8.96
2019-04-10T08:49:47.671Z,9.09
2019-04-10T08:50:47.659Z,9.16
2019-04-10T08:51:47.941Z,9.18
2019-04-10T08:52:48.671Z,9.09
2019-04-10T08:53:48.760Z,9.05
2019-04-10T08:54:47.622Z,9.09
2019-04-10T08:55:48.492Z,9.10
2019-04-10T08:56:47.592Z,9.15
2019-04-10T08:57:47.615Z,9.16
2019-04-10T08:58:48.379Z,9.16
2019-04-10T08:59:48.321Z,9.23
2019-04-10T09:00:47.552Z,9.34
2019-04-10T09:01:47.545Z,9.49
2019-04-10T09:02:48.613Z,9.63
2019-04-10T09:03:47.519Z,9.71
2019-04-10T09:04:47.532Z,9.81
2019-04-10T09:05:47.500Z,9.88
2019-04-10T09:06:47.495Z,9.89
2019-04-10T09:07:48.470Z,9.91
2019-04-10T09:08:47.485Z,9.99
2019-04-10T09:09:47.987Z,10.07
2019-04-10T09:10:47.451Z,10.15
2019-04-10T09:11:47.441Z,10.09
2019-04-10T09:12:47.470Z,9.96
2019-04-10T09:13:48.523Z,9.86
2019-04-10T09:14:47.634Z,9.89
2019-04-10T09:15:47.890Z,9.97
2019-04-10T09:16:47.373Z,10.06
2019-04-10T09:17:47.370Z,10.12
2019-04-10T09:18:47.604Z,10.18
2019-04-10T09:19:47.343Z,10.25
2019-04-10T09:20:47.385Z,10.26
2019-04-10T09:21:47.903Z,10.15
2019-04-10T09:23:10.722Z,9.82
2019-04-10T09:23:53.083Z,9.70
2019-04-10T09:24:48.859Z,9.68
2019-04-10T09:25:47.271Z,9.70
2019-04-10T09:26:47.298Z,9.76
2019-04-10T09:27:47.268Z,9.73
2019-04-10T09:28:47.261Z,9.76
2019-04-10T09:29:47.281Z,9.81
2019-04-10T09:30:47.237Z,9.86
2019-04-10T09:31:48.149Z,9.96
2019-04-10T09:32:47.232Z,10.04
2019-04-10T09:33:47.441Z,10.10
2019-04-10T09:34:48.155Z,10.15
2019-04-10T09:35:47.224Z,10.17
2019-04-10T09:36:47.170Z,10.09
2019-04-10T09:37:48.294Z,10.06
2019-04-10T09:38:47.343Z,10.06
2019-04-10T09:39:47.945Z,10.12
2019-04-10T09:40:47.121Z,10.18
2019-04-10T09:41:47.134Z,10.09
2019-04-10T09:42:48.017Z,10.00
2019-04-10T09:43:47.707Z,10.00
2019-04-10T09:44:47.094Z,9.97
2019-04-10T09:45:48.067Z,9.91
2019-04-10T09:46:47.312Z,9.85
2019-04-10T09:47:48.070Z,9.86
2019-04-10T09:48:47.684Z,9.94
2019-04-10T09:49:47.204Z,10.03
2019-04-10T09:50:48.064Z,10.09
2019-04-10T09:51:48.096Z,10.12
2019-04-10T09:52:48.180Z,10.18
2019-04-10T09:53:46.971Z,10.19
2019-04-10T09:54:46.960Z,10.25
2019-04-10T09:55:47.003Z,10.28
2019-04-10T09:56:46.939Z,10.34
2019-04-10T09:57:47.606Z,10.36
2019-04-10T09:58:46.943Z,10.40
2019-04-10T09:59:47.330Z,10.44
2019-04-10T10:00:48.094Z,10.44
2019-04-10T10:01:46.883Z,10.44
2019-04-10T10:02:47.288Z,10.44
2019-04-10T10:03:46.862Z,10.37
2019-04-10T10:04:47.870Z,10.25
2019-04-10T10:05:46.874Z,10.17
2019-04-10T10:06:47.355Z,10.17
2019-04-10T10:07:46.822Z,10.18
2019-04-10T10:08:47.899Z,10.24
2019-04-10T10:09:47.243Z,10.30
2019-04-10T10:10:47.198Z,10.37
2019-04-10T10:11:47.023Z,10.36
2019-04-10T10:12:46.772Z,10.36
2019-04-10T10:13:46.761Z,10.39
2019-04-10T10:14:46.750Z,10.43
2019-04-10T10:15:46.733Z,10.43
2019-04-10T10:16:46.763Z,10.47
2019-04-10T10:17:46.730Z,10.51
2019-04-10T10:18:47.719Z,10.56
2019-04-10T10:19:46.682Z,10.60
2019-04-10T10:20:46.674Z,10.58
2019-04-10T10:21:46.699Z,10.59
2019-04-10T10:22:47.492Z,10.62
2019-04-10T10:23:46.652Z,10.66
2019-04-10T10:24:46.844Z,10.70
2019-04-10T10:25:47.713Z,10.73
2019-04-10T10:26:46.671Z,10.77
2019-04-10T10:27:46.911Z,10.77
2019-04-10T10:28:47.105Z,10.80
2019-04-10T10:29:46.593Z,10.80
2019-04-10T10:30:47.389Z,10.83
2019-04-10T10:31:49.374Z,10.86
2019-04-10T10:32:46.562Z,10.91
2019-04-10T10:33:46.569Z,10.95
2019-04-10T10:34:46.969Z,10.94
2019-04-10T10:35:47.424Z,10.94
2019-04-10T10:36:48.931Z,10.95
2019-04-10T10:37:46.528Z,10.89
2019-04-10T10:38:47.471Z,10.88
2019-04-10T10:39:47.246Z,10.94
2019-04-10T10:40:46.645Z,10.95
2019-04-10T10:41:46.817Z,10.94
2019-04-10T10:42:47.620Z,10.92
2019-04-10T10:43:46.728Z,10.95
2019-04-10T10:44:46.411Z,11.02
2019-04-10T10:45:47.132Z,11.09
2019-04-10T10:46:47.375Z,11.13
2019-04-10T10:47:46.500Z,11.09
2019-04-10T10:48:46.402Z,10.98
2019-04-10T10:49:46.618Z,10.84
2019-04-10T10:50:46.352Z,10.77
2019-04-10T10:51:46.792Z,10.74
2019-04-10T10:52:46.391Z,10.76
2019-04-10T10:53:46.358Z,10.80
2019-04-10T10:54:47.265Z,10.88
2019-04-10T10:55:47.509Z,10.95
2019-04-10T10:56:46.707Z,11.01
2019-04-10T10:57:47.059Z,11.01
2019-04-10T10:58:46.262Z,10.95
2019-04-10T10:59:46.317Z,10.91
2019-04-10T11:00:47.288Z,10.83
2019-04-10T11:01:46.347Z,10.78
2019-04-10T11:02:46.229Z,10.83
2019-04-10T11:03:46.689Z,10.81
2019-04-10T11:04:47.418Z,10.84
2019-04-10T11:05:46.489Z,10.88
2019-04-10T11:06:55.359Z,10.89
2019-04-10T11:07:47.191Z,10.86
2019-04-10T11:08:46.155Z,10.89
2019-04-10T11:09:46.205Z,10.91
2019-04-10T11:11:47.173Z,10.98
2019-04-10T11:12:46.610Z,11.02
2019-04-10T11:13:46.911Z,11.06
2019-04-10T11:14:46.133Z,11.10
2019-04-10T11:15:46.119Z,11.13
2019-04-10T11:16:46.991Z,11.17
2019-04-10T11:17:46.158Z,11.14
2019-04-10T11:18:46.869Z,11.06
2019-04-10T11:19:47.330Z,11.01
2019-04-10T11:20:46.023Z,10.98
2019-04-10T11:21:47.055Z,10.95
2019-04-10T11:22:47.339Z,10.95
2019-04-10T11:23:46.851Z,11.01
2019-04-10T11:24:47.126Z,11.06
2019-04-10T11:25:46.472Z,11.02
2019-04-10T11:26:46.261Z,11.02
2019-04-10T11:27:46.033Z,11.06
2019-04-10T11:28:45.972Z,11.13
2019-04-10T11:29:46.756Z,11.14
2019-04-10T11:30:47.481Z,11.16
2019-04-10T11:31:46.981Z,11.19
2019-04-10T11:32:46.306Z,11.20
2019-04-10T11:34:46.889Z,11.21
2019-04-10T11:35:45.965Z,11.21
2019-04-10T11:36:45.883Z,11.14
2019-04-10T11:37:49.387Z,11.07
2019-04-10T11:38:46.868Z,11.06
2019-04-10T11:39:47.558Z,11.07
2019-04-10T11:40:47.253Z,11.07
2019-04-10T11:41:48.804Z,11.11
2019-04-10T11:42:46.942Z,11.16
2019-04-10T11:43:46.610Z,11.20
2019-04-10T11:44:47.272Z,11.27
2019-04-10T11:45:52.031Z,11.27
2019-04-10T11:46:46.747Z,11.29
2019-04-10T11:47:47.556Z,11.31
2019-04-10T11:48:46.932Z,11.34
2019-04-10T11:49:47.176Z,11.35
2019-04-10T11:50:46.172Z,11.36
2019-04-10T11:51:46.912Z,11.34
2019-04-10T11:52:52.132Z,11.35
2019-04-10T11:53:48.703Z,11.35
2019-04-10T11:54:48.534Z,11.36
2019-04-10T11:56:49.055Z,11.34
2019-04-10T11:57:47.541Z,11.34
2019-04-10T11:58:51.251Z,11.34
2019-04-10T11:59:48.824Z,11.34
2019-04-10T12:01:48.377Z,11.31
2019-04-10T12:02:47.974Z,11.31
2019-04-10T12:03:49.068Z,11.29
2019-04-10T12:04:53.753Z,11.32
2019-04-10T12:05:48.558Z,11.32
2019-04-10T12:06:49.121Z,11.35
2019-04-10T12:08:08.940Z,11.36
2019-04-10T12:09:08.415Z,11.39
2019-04-10T12:11:46.908Z,11.31
2019-04-10T12:12:45.927Z,11.07
2019-04-10T12:13:46.216Z,11.06
2019-04-10T12:14:45.873Z,11.09
2019-04-10T12:15:45.493Z,11.14
2019-04-10T12:16:45.446Z,11.13
2019-04-10T12:17:46.387Z,11.10
2019-04-10T12:18:45.402Z,11.07
2019-04-10T12:19:45.415Z,11.09
2019-04-10T12:20:45.388Z,11.09
2019-04-10T12:21:46.279Z,11.09
2019-04-10T12:22:46.211Z,11.03
2019-04-10T12:23:45.343Z,11.06
2019-04-10T12:24:48.484Z,11.06
2019-04-10T12:25:45.361Z,11.09
2019-04-10T12:26:45.312Z,11.01
2019-04-10T12:27:45.401Z,10.95
2019-04-10T12:28:46.439Z,10.92
2019-04-10T12:29:45.274Z,10.96
2019-04-10T12:30:45.787Z,10.98
2019-04-10T12:31:45.283Z,11.01
2019-04-10T12:32:46.398Z,11.03
2019-04-10T12:33:45.221Z,11.10
2019-04-10T12:34:45.223Z,11.16
2019-04-10T12:35:45.745Z,11.16
2019-04-10T12:36:45.192Z,11.03
2019-04-10T12:37:45.442Z,10.98
2019-04-10T12:38:45.176Z,10.89
2019-04-10T12:39:45.441Z,10.91
2019-04-10T12:40:45.150Z,10.95
2019-04-10T12:41:45.838Z,10.95
2019-04-10T12:42:46.132Z,10.95
2019-04-10T12:43:45.229Z,10.91
2019-04-10T12:44:45.111Z,10.89
2019-04-10T12:45:45.135Z,10.91
2019-04-10T12:46:45.652Z,10.98
2019-04-10T12:47:46.005Z,11.02
2019-04-10T12:48:45.243Z,11.09
2019-04-10T12:49:45.086Z,11.13
2019-04-10T12:50:45.351Z,11.19
2019-04-10T12:51:45.745Z,11.25
2019-04-10T12:52:45.092Z,11.32
2019-04-10T12:53:45.608Z,11.34
2019-04-10T12:54:45.041Z,11.38
2019-04-10T12:55:45.862Z,11.41
2019-04-10T12:56:45.068Z,11.38
2019-04-10T12:57:45.443Z,11.39
2019-04-10T12:58:44.951Z,11.41
2019-04-10T12:59:45.802Z,11.39
2019-04-10T13:00:44.978Z,11.36
2019-04-10T13:01:44.948Z,11.39
2019-04-10T13:02:44.934Z,11.38
2019-04-10T13:03:44.919Z,11.32
2019-04-10T13:04:44.991Z,11.29
2019-04-10T13:05:45.216Z,11.27
2019-04-10T13:06:44.864Z,11.27
2019-04-10T13:07:45.609Z,11.27
2019-04-10T13:08:55.805Z,11.28